Погода Монтес Кларосна неделю

Минас-Жерайс, Бразилия

17 - 23 июля
  • 17июля
    Сегодня
    +15°
    +29°
    Ясно и безоблачно
    ВремяПогодаТемператураВлажностьДавлениеВетер, м/сВероятность осадков
    00:00Ясно и безоблачно+18°C65 %704 мм1.5 м/с5 %
    03:00Ясно и безоблачно+14°C79 %703 мм1.4 м/с5 %
    06:00Ясно и безоблачно+14°C91 %703 мм1.8 м/с5 %
    09:00Ясно и безоблачно+21°C67 %706 мм1.0 м/с4 %
    12:00Облачно с прояснениями+27°C38 %705 мм2.2 м/с3 %
    15:00Ясно и безоблачно+28°C35 %703 мм1.4 м/с5 %
    18:00Практически безоблачно+25°C43 %703 мм1.0 м/с5 %
    21:00Ясно и безоблачно+21°C50 %703 мм1.0 м/с5 %
  • 18июля
    Четверг
    +15°
    +29°
    Небольшая облачность
    ВремяПогодаТемператураВлажностьДавлениеВетер, м/сВероятность осадков
    00:00Практически безоблачно+19°C58 %703 мм1.2 м/с5 %
    03:00Облачно с прояснениями+16°C67 %701 мм1.8 м/с5 %
    06:00Практически безоблачно+17°C62 %702 мм1.2 м/с5 %
    09:00Небольшая облачность+21°C53 %704 мм0.9 м/с5 %
    12:00Облачно с прояснениями+27°C38 %704 мм2.0 м/с5 %
    15:00Небольшая облачность+29°C35 %702 мм1.4 м/с5 %
    18:00Практически безоблачно+25°C41 %702 мм2.3 м/с5 %
    21:00Ясно и безоблачно+22°C58 %703 мм1.0 м/с5 %
  • 19июля
    Пятница
    +14°
    +29°
    Ясно и безоблачно
    ВремяПогодаТемператураВлажностьДавлениеВетер, м/сВероятность осадков
    00:00Ясно и безоблачно+19°C65 %703 мм1.5 м/с5 %
    03:00Ясно и безоблачно+18°C68 %702 мм1.2 м/с5 %
    06:00Ясно и безоблачно+15°C75 %702 мм1.4 м/с5 %
    09:00Ясно и безоблачно+21°C44 %705 мм1.0 м/с5 %
    12:00Ясно и безоблачно+27°C31 %705 мм3.3 м/с5 %
    15:00Ясно и безоблачно+29°C30 %703 мм1.5 м/с5 %
    18:00Ясно и безоблачно+24°C38 %703 мм2.4 м/с5 %
    21:00Ясно и безоблачно+21°C55 %704 мм1.0 м/с5 %
  • 20июля
    Суббота
    +14°
    +28°
    Ясно и безоблачно
    ВремяПогодаТемператураВлажностьДавлениеВетер, м/сВероятность осадков
    00:00Ясно и безоблачно+18°C64 %703 мм1.5 м/с5 %
    03:00Ясно и безоблачно+17°C70 %702 мм2.1 м/с5 %
    06:00Ясно и безоблачно+15°C82 %702 мм1.9 м/с5 %
    09:00Ясно и безоблачно+20°C64 %705 мм1.1 м/с5 %
    12:00Ясно и безоблачно+25°C46 %704 мм2.9 м/с5 %
    15:00Ясно и безоблачно+28°C39 %703 мм1.4 м/с5 %
    18:00Ясно и безоблачно+24°C45 %702 мм2.2 м/с5 %
    21:00Ясно и безоблачно+20°C58 %703 мм1.0 м/с5 %
  • 21июля
    Воскресенье
    +14°
    +28°
    Ясно и безоблачно
    ВремяПогодаТемператураВлажностьДавлениеВетер, м/сВероятность осадков
    00:00Ясно и безоблачно+18°C68 %703 мм1.6 м/с5 %
    03:00Ясно и безоблачно+16°C74 %701 мм1.6 м/с5 %
    06:00Ясно и безоблачно+14°C81 %702 мм1.3 м/с5 %
    09:00Ясно и безоблачно+20°C57 %704 мм1.0 м/с5 %
    12:00Ясно и безоблачно+26°C39 %704 мм3.1 м/с5 %
    15:00Ясно и безоблачно+28°C35 %702 мм1.5 м/с5 %
    18:00Ясно и безоблачно+24°C42 %702 мм2.8 м/с5 %
    21:00Ясно и безоблачно+20°C54 %703 мм1.0 м/с5 %
Мы используем cookies
Соглашаюсь